Legend Of The Seas — C6SL5 — position and weather

sailwx.info

Track history (hours):
 
Tides and Currents Weather Stations Pressure Air Temp Water Temp Dewpoint Dewpoint Depression Visibility Wind Speed Wind Dir Waves Ship Positions

Legend Of The Seas

Operator: Royal Caribbean Cruises Ltd

Last reported at 2015-Jul-31 18:33 UTC. Time now 2015-Jul-31 21:19 UTC.
Position N 31°45' E 128°29'.

Type: Passenger vessel. MMSI: 311378000.

Date/timePositionNaut miles runAvg speedWind from/ knotsBaromVisibWave heightAir tempDewpointWater temp
2015-Jul-31 18:33N 31°45' E 128°29'4421.9
2015-Jul-31 16:33N 31°18' E 127°49'2523.8
2015-Jul-31 15:30N 31°03' E 127°26'2122.6
2015-Jul-31 14:33N 30°49' E 127°07'2422.8
2015-Jul-31 13:31N 30°35' E 126°45'2222.6
2015-Jul-31 12:34N 30°21' E 126°25'2222.1
2015-Jul-31 11:33N 30°08' E 126°05'2421.6
2015-Jul-31 10:27N 29°52' E 125°44'2021.2
2015-Jul-31 09:30N 29°41' E 125°24'7920.0
2015-Jul-31 05:33N 28°48' E 124°17'7421.2
2015-Jul-31 02:03N 27°55' E 123°19'24521.3
2015-Jul-30 14:32N 25°05' E 120°02'2121.2
2015-Jul-30 13:33N 24°51' E 119°45'2921.6
2015-Jul-30 12:14N 24°36' E 119°18'2122.2
2015-Jul-30 11:17N 24°25' E 118°59'1822.0
2015-Jul-30 10:28N 24°18' E 118°40'1920.1
2015-Jul-30 09:31N 24°13' E 118°20'1413.6
2015-Jul-30 08:31N 24°21' E 118°09'9 8.9
2015-Jul-30 07:32N 24°29' E 118°03'1 0.4
2015-Jul-30 05:32N 24°29' E 118°04'0 0.0
2015-Jul-30 00:32N 24°29' E 118°04'0 0.0
2015-Jul-29 22:32N 24°29' E 118°04'0 0.0
2015-Jul-29 21:34N 24°29' E 118°04'8 7.5
2015-Jul-29 20:33N 24°22' E 118°08'1413.7
2015-Jul-29 19:33N 24°12' E 118°18'1414.0
2015-Jul-29 18:33N 24°16' E 118°33'3516.8
2015-Jul-29 16:29N 24°30' E 119°08'3917.8
2015-Jul-29 14:18N 24°49' E 119°45'1318.0
2015-Jul-29 13:33N 24°55' E 119°58'1818.3
2015-Jul-29 12:33N 25°03' E 120°17'6319.0
2015-Jul-29 09:13N 25°30' E 121°20'1319.5
2015-Jul-29 08:34N 25°36' E 121°32'  
2015-Jul-25 13:07N 24°55' E 119°49'3922.3
2015-Jul-25 11:22N 24°31' E 119°16'2521.3
2015-Jul-25 10:11N 24°21' E 118°50'1321.6
2015-Jul-25 09:33N 24°17' E 118°36'1918.9
2015-Jul-25 08:33N 24°15' E 118°16'1414.0
2015-Jul-25 07:33N 24°25' E 118°05'5 3.6
2015-Jul-25 06:17N 24°29' E 118°04'0 0.0
2015-Jul-25 04:05N 24°29' E 118°04'0 0.0
2015-Jul-25 03:17N 24°29' E 118°04'0 0.0
2015-Jul-25 01:23N 24°29' E 118°04'0 0.0
2015-Jul-25 00:23N 24°29' E 118°04'0 0.0
2015-Jul-24 23:05N 24°29' E 118°04'0 0.0
2015-Jul-24 21:33N 24°29' E 118°04'7 6.8
2015-Jul-24 20:32N 24°23' E 118°07'1413.9
2015-Jul-24 19:33N 24°13' E 118°17'1514.5
2015-Jul-24 18:33N 24°00' E 118°26'11616.6
2015-Jul-24 11:33N 22°42' E 119°59'1615.8
2015-Jul-24 10:34N 22°37' E 120°15'2 1.6
2015-Jul-24 09:27N 22°37' E 120°17'0 0.0
2015-Jul-24 08:33N 22°37' E 120°17'0 0.0
2015-Jul-24 07:33N 22°37' E 120°17'0 0.0
2015-Jul-24 06:33N 22°37' E 120°17'0 0.0
2015-Jul-24 05:33N 22°37' E 120°17'0 0.0
2015-Jul-24 04:33N 22°37' E 120°17'0 0.0
2015-Jul-24 03:33N 22°37' E 120°17'0 0.0
2015-Jul-24 02:33N 22°37' E 120°17'0 0.0
2015-Jul-24 01:33N 22°37' E 120°17'0 0.0
2015-Jul-24 00:09N 22°37' E 120°17'0 0.2
2015-Jul-23 23:33N 22°37' E 120°17'8 7.8
2015-Jul-23 22:33N 22°38' E 120°09'1211.7
2015-Jul-23 21:33N 22°48' E 120°02'  
Track history (hours):
 
Tides and Currents Weather Stations Pressure Air Temp Water Temp Dewpoint Dewpoint Depression Visibility Wind Speed Wind Dir Waves Ship Positions

Legend Of The Seas

Operator: Royal Caribbean Cruises Ltd

Last reported at 2015-Jul-31 18:33 UTC. Time now 2015-Jul-31 21:19 UTC.
Position N 31°45' E 128°29'.

Type: Passenger vessel. MMSI: 311378000.

Date/timePositionNaut miles runAvg speedWind from/ knotsBaromVisibWave heightAir tempDewpointWater temp
2015-Jul-31 18:33N 31°45' E 128°29'4421.9
2015-Jul-31 16:33N 31°18' E 127°49'2523.8
2015-Jul-31 15:30N 31°03' E 127°26'2122.6
2015-Jul-31 14:33N 30°49' E 127°07'2422.8
2015-Jul-31 13:31N 30°35' E 126°45'2222.6
2015-Jul-31 12:34N 30°21' E 126°25'2222.1
2015-Jul-31 11:33N 30°08' E 126°05'2421.6
2015-Jul-31 10:27N 29°52' E 125°44'2021.2
2015-Jul-31 09:30N 29°41' E 125°24'7920.0
2015-Jul-31 05:33N 28°48' E 124°17'7421.2
2015-Jul-31 02:03N 27°55' E 123°19'24521.3
2015-Jul-30 14:32N 25°05' E 120°02'2121.2
2015-Jul-30 13:33N 24°51' E 119°45'2921.6
2015-Jul-30 12:14N 24°36' E 119°18'2122.2
2015-Jul-30 11:17N 24°25' E 118°59'1822.0
2015-Jul-30 10:28N 24°18' E 118°40'1920.1
2015-Jul-30 09:31N 24°13' E 118°20'1413.6
2015-Jul-30 08:31N 24°21' E 118°09'9 8.9
2015-Jul-30 07:32N 24°29' E 118°03'1 0.4
2015-Jul-30 05:32N 24°29' E 118°04'0 0.0
2015-Jul-30 00:32N 24°29' E 118°04'0 0.0
2015-Jul-29 22:32N 24°29' E 118°04'0 0.0
2015-Jul-29 21:34N 24°29' E 118°04'8 7.5
2015-Jul-29 20:33N 24°22' E 118°08'1413.7
2015-Jul-29 19:33N 24°12' E 118°18'1414.0
2015-Jul-29 18:33N 24°16' E 118°33'3516.8
2015-Jul-29 16:29N 24°30' E 119°08'3917.8
2015-Jul-29 14:18N 24°49' E 119°45'1318.0
2015-Jul-29 13:33N 24°55' E 119°58'1818.3
2015-Jul-29 12:33N 25°03' E 120°17'6319.0
2015-Jul-29 09:13N 25°30' E 121°20'1319.5
2015-Jul-29 08:34N 25°36' E 121°32'  
2015-Jul-25 13:07N 24°55' E 119°49'3922.3
2015-Jul-25 11:22N 24°31' E 119°16'2521.3
2015-Jul-25 10:11N 24°21' E 118°50'1321.6
2015-Jul-25 09:33N 24°17' E 118°36'1918.9
2015-Jul-25 08:33N 24°15' E 118°16'1414.0
2015-Jul-25 07:33N 24°25' E 118°05'5 3.6
2015-Jul-25 06:17N 24°29' E 118°04'0 0.0
2015-Jul-25 04:05N 24°29' E 118°04'0 0.0
2015-Jul-25 03:17N 24°29' E 118°04'0 0.0
2015-Jul-25 01:23N 24°29' E 118°04'0 0.0
2015-Jul-25 00:23N 24°29' E 118°04'0 0.0
2015-Jul-24 23:05N 24°29' E 118°04'0 0.0
2015-Jul-24 21:33N 24°29' E 118°04'7 6.8
2015-Jul-24 20:32N 24°23' E 118°07'1413.9
2015-Jul-24 19:33N 24°13' E 118°17'1514.5
2015-Jul-24 18:33N 24°00' E 118°26'11616.6
2015-Jul-24 11:33N 22°42' E 119°59'1615.8
2015-Jul-24 10:34N 22°37' E 120°15'2 1.6
2015-Jul-24 09:27N 22°37' E 120°17'0 0.0
2015-Jul-24 08:33N 22°37' E 120°17'0 0.0
2015-Jul-24 07:33N 22°37' E 120°17'0 0.0
2015-Jul-24 06:33N 22°37' E 120°17'0 0.0
2015-Jul-24 05:33N 22°37' E 120°17'0 0.0
2015-Jul-24 04:33N 22°37' E 120°17'0 0.0
2015-Jul-24 03:33N 22°37' E 120°17'0 0.0
2015-Jul-24 02:33N 22°37' E 120°17'0 0.0
2015-Jul-24 01:33N 22°37' E 120°17'0 0.0
2015-Jul-24 00:09N 22°37' E 120°17'0 0.2
2015-Jul-23 23:33N 22°37' E 120°17'8 7.8
2015-Jul-23 22:33N 22°38' E 120°09'1211.7
2015-Jul-23 21:33N 22°48' E 120°02'  

Dump ship's entire track history